sensor_id;sensor_type;location;lat;lon;timestamp;temperature;humidity
30037;DHT22;36325;51.512;-0.382;2023-06-22T00:00:06;18.00;99.90
30037;DHT22;36325;51.512;-0.382;2023-06-22T00:02:38;18.00;99.90
30037;DHT22;36325;51.512;-0.382;2023-06-22T00:05:06;17.90;99.90
30037;DHT22;36325;51.512;-0.382;2023-06-22T00:07:34;17.80;99.90
30037;DHT22;36325;51.512;-0.382;2023-06-22T00:10:04;17.80;99.90
30037;DHT22;36325;51.512;-0.382;2023-06-22T00:12:32;17.70;99.90
30037;DHT22;36325;51.512;-0.382;2023-06-22T00:14:59;17.70;99.90
30037;DHT22;36325;51.512;-0.382;2023-06-22T00:17:26;17.60;99.90
30037;DHT22;36325;51.512;-0.382;2023-06-22T00:19:54;17.60;99.90
30037;DHT22;36325;51.512;-0.382;2023-06-22T00:22:23;17.50;99.90
30037;DHT22;36325;51.512;-0.382;2023-06-22T00:24:56;17.50;99.90
30037;DHT22;36325;51.512;-0.382;2023-06-22T00:27:23;17.40;99.90
30037;DHT22;36325;51.512;-0.382;2023-06-22T00:29:51;17.40;99.90
30037;DHT22;36325;51.512;-0.382;2023-06-22T00:32:18;17.40;99.90
30037;DHT22;36325;51.512;-0.382;2023-06-22T00:34:47;17.40;99.90
30037;DHT22;36325;51.512;-0.382;2023-06-22T00:37:14;17.40;99.90
30037;DHT22;36325;51.512;-0.382;2023-06-22T00:39:45;17.30;99.90
30037;DHT22;36325;51.512;-0.382;2023-06-22T00:42:12;17.30;99.90
30037;DHT22;36325;51.512;-0.382;2023-06-22T00:44:39;17.30;99.90
30037;DHT22;36325;51.512;-0.382;2023-06-22T00:47:07;17.20;99.90
30037;DHT22;36325;51.512;-0.382;2023-06-22T00:49:34;17.20;99.90
30037;DHT22;36325;51.512;-0.382;2023-06-22T00:52:02;17.10;99.90
30037;DHT22;36325;51.512;-0.382;2023-06-22T00:54:30;17.10;99.90
30037;DHT22;36325;51.512;-0.382;2023-06-22T00:56:57;17.10;99.90
30037;DHT22;36325;51.512;-0.382;2023-06-22T00:59:26;17.00;99.90
30037;DHT22;36325;51.512;-0.382;2023-06-22T01:01:54;17.00;99.90
30037;DHT22;36325;51.512;-0.382;2023-06-22T01:04:25;17.00;99.90
30037;DHT22;36325;51.512;-0.382;2023-06-22T01:09:57;16.90;99.90
30037;DHT22;36325;51.512;-0.382;2023-06-22T01:12:26;16.90;99.90
30037;DHT22;36325;51.512;-0.382;2023-06-22T01:15:08;16.90;99.90
30037;DHT22;36325;51.512;-0.382;2023-06-22T01:17:40;16.80;99.90
30037;DHT22;36325;51.512;-0.382;2023-06-22T01:20:10;16.80;99.90
30037;DHT22;36325;51.512;-0.382;2023-06-22T01:23:07;16.80;99.90
30037;DHT22;36325;51.512;-0.382;2023-06-22T01:25:48;16.70;99.90
30037;DHT22;36325;51.512;-0.382;2023-06-22T01:31:28;16.70;99.90
30037;DHT22;36325;51.512;-0.382;2023-06-22T01:34:04;16.70;99.90
30037;DHT22;36325;51.512;-0.382;2023-06-22T01:36:35;16.70;99.90
30037;DHT22;36325;51.512;-0.382;2023-06-22T01:39:04;16.60;99.90
30037;DHT22;36325;51.512;-0.382;2023-06-22T01:41:35;16.70;99.90
30037;DHT22;36325;51.512;-0.382;2023-06-22T01:44:05;16.70;99.90
30037;DHT22;36325;51.512;-0.382;2023-06-22T01:46:36;16.70;99.90
30037;DHT22;36325;51.512;-0.382;2023-06-22T01:49:04;16.70;99.90
30037;DHT22;36325;51.512;-0.382;2023-06-22T01:51:31;16.70;99.90
30037;DHT22;36325;51.512;-0.382;2023-06-22T01:53:59;16.60;99.90
30037;DHT22;36325;51.512;-0.382;2023-06-22T01:56:26;16.60;99.90
30037;DHT22;36325;51.512;-0.382;2023-06-22T01:59:29;16.60;99.90
30037;DHT22;36325;51.512;-0.382;2023-06-22T02:02:05;16.50;99.90
30037;DHT22;36325;51.512;-0.382;2023-06-22T02:04:48;16.50;99.90
30037;DHT22;36325;51.512;-0.382;2023-06-22T02:07:19;16.50;99.90
30037;DHT22;36325;51.512;-0.382;2023-06-22T02:09:49;16.50;99.90
30037;DHT22;36325;51.512;-0.382;2023-06-22T02:12:22;16.40;99.90
30037;DHT22;36325;51.512;-0.382;2023-06-22T02:14:51;16.40;99.90
30037;DHT22;36325;51.512;-0.382;2023-06-22T02:17:19;16.40;99.90
30037;DHT22;36325;51.512;-0.382;2023-06-22T02:19:47;16.30;99.90
30037;DHT22;36325;51.512;-0.382;2023-06-22T02:22:14;16.30;99.90
30037;DHT22;36325;51.512;-0.382;2023-06-22T02:24:43;16.20;99.90
30037;DHT22;36325;51.512;-0.382;2023-06-22T02:27:10;16.20;99.90
30037;DHT22;36325;51.512;-0.382;2023-06-22T02:29:38;16.30;99.90
30037;DHT22;36325;51.512;-0.382;2023-06-22T02:32:05;16.30;99.90
30037;DHT22;36325;51.512;-0.382;2023-06-22T02:34:32;16.20;99.90
30037;DHT22;36325;51.512;-0.382;2023-06-22T02:37:01;16.20;99.90
30037;DHT22;36325;51.512;-0.382;2023-06-22T02:39:30;16.20;99.90
30037;DHT22;36325;51.512;-0.382;2023-06-22T02:41:57;16.20;99.90
30037;DHT22;36325;51.512;-0.382;2023-06-22T02:44:25;16.20;99.90
30037;DHT22;36325;51.512;-0.382;2023-06-22T02:46:52;16.20;99.90
30037;DHT22;36325;51.512;-0.382;2023-06-22T02:49:21;16.20;99.90
30037;DHT22;36325;51.512;-0.382;2023-06-22T02:51:49;16.10;99.90
30037;DHT22;36325;51.512;-0.382;2023-06-22T02:54:19;16.10;99.90
30037;DHT22;36325;51.512;-0.382;2023-06-22T02:56:49;16.10;99.90
30037;DHT22;36325;51.512;-0.382;2023-06-22T02:59:19;16.00;99.90
30037;DHT22;36325;51.512;-0.382;2023-06-22T03:01:56;16.00;99.90
30037;DHT22;36325;51.512;-0.382;2023-06-22T03:04:28;16.00;99.90
30037;DHT22;36325;51.512;-0.382;2023-06-22T03:06:55;16.00;99.90
30037;DHT22;36325;51.512;-0.382;2023-06-22T03:09:23;16.00;99.90
30037;DHT22;36325;51.512;-0.382;2023-06-22T03:11:50;15.90;99.90
30037;DHT22;36325;51.512;-0.382;2023-06-22T03:14:19;15.90;99.90
30037;DHT22;36325;51.512;-0.382;2023-06-22T03:16:47;15.90;99.90
30037;DHT22;36325;51.512;-0.382;2023-06-22T03:19:15;15.90;99.90
30037;DHT22;36325;51.512;-0.382;2023-06-22T03:21:42;15.90;99.90
30037;DHT22;36325;51.512;-0.382;2023-06-22T03:24:09;15.90;99.90
30037;DHT22;36325;51.512;-0.382;2023-06-22T03:26:38;15.90;99.90
30037;DHT22;36325;51.512;-0.382;2023-06-22T03:29:05;15.90;99.90
30037;DHT22;36325;51.512;-0.382;2023-06-22T03:31:34;15.90;99.90
30037;DHT22;36325;51.512;-0.382;2023-06-22T03:34:01;15.90;99.90
30037;DHT22;36325;51.512;-0.382;2023-06-22T03:36:29;15.90;99.90
30037;DHT22;36325;51.512;-0.382;2023-06-22T03:38:56;15.90;99.90
30037;DHT22;36325;51.512;-0.382;2023-06-22T03:41:23;15.90;99.90
30037;DHT22;36325;51.512;-0.382;2023-06-22T03:43:51;15.90;99.90
30037;DHT22;36325;51.512;-0.382;2023-06-22T03:46:18;15.80;99.90
30037;DHT22;36325;51.512;-0.382;2023-06-22T03:48:47;15.80;99.90
30037;DHT22;36325;51.512;-0.382;2023-06-22T03:51:14;15.80;99.90
30037;DHT22;36325;51.512;-0.382;2023-06-22T03:53:41;15.80;99.90
30037;DHT22;36325;51.512;-0.382;2023-06-22T03:56:08;15.80;99.90
30037;DHT22;36325;51.512;-0.382;2023-06-22T03:58:35;14.30;99.90
30037;DHT22;36325;51.512;-0.382;2023-06-22T04:01:03;15.70;99.90
30037;DHT22;36325;51.512;-0.382;2023-06-22T04:03:31;15.60;99.90
30037;DHT22;36325;51.512;-0.382;2023-06-22T04:05:58;15.60;99.90
30037;DHT22;36325;51.512;-0.382;2023-06-22T04:08:25;15.60;99.90
30037;DHT22;36325;51.512;-0.382;2023-06-22T04:10:52;15.60;99.90
30037;DHT22;36325;51.512;-0.382;2023-06-22T04:13:20;15.60;99.90
30037;DHT22;36325;51.512;-0.382;2023-06-22T04:15:47;15.60;99.90
30037;DHT22;36325;51.512;-0.382;2023-06-22T04:18:15;15.60;99.90
30037;DHT22;36325;51.512;-0.382;2023-06-22T04:20:42;15.60;99.90
30037;DHT22;36325;51.512;-0.382;2023-06-22T04:23:14;16.40;99.90
30037;DHT22;36325;51.512;-0.382;2023-06-22T04:25:41;15.70;99.90
30037;DHT22;36325;51.512;-0.382;2023-06-22T04:33:17;15.70;99.90
30037;DHT22;36325;51.512;-0.382;2023-06-22T04:35:47;15.80;99.90
30037;DHT22;36325;51.512;-0.382;2023-06-22T04:38:14;15.90;99.90
30037;DHT22;36325;51.512;-0.382;2023-06-22T04:40:42;15.90;99.90
30037;DHT22;36325;51.512;-0.382;2023-06-22T04:43:09;15.90;99.90
30037;DHT22;36325;51.512;-0.382;2023-06-22T04:45:37;15.90;99.90
30037;DHT22;36325;51.512;-0.382;2023-06-22T04:48:05;16.00;99.90
30037;DHT22;36325;51.512;-0.382;2023-06-22T04:50:33;16.00;99.90
30037;DHT22;36325;51.512;-0.382;2023-06-22T04:53:00;16.10;99.90
30037;DHT22;36325;51.512;-0.382;2023-06-22T04:55:27;16.10;99.90
30037;DHT22;36325;51.512;-0.382;2023-06-22T04:57:54;16.20;99.90
30037;DHT22;36325;51.512;-0.382;2023-06-22T05:00:22;16.20;99.90
30037;DHT22;36325;51.512;-0.382;2023-06-22T05:02:50;16.30;99.90
30037;DHT22;36325;51.512;-0.382;2023-06-22T05:05:17;16.40;99.90
30037;DHT22;36325;51.512;-0.382;2023-06-22T05:07:46;16.40;99.90
30037;DHT22;36325;51.512;-0.382;2023-06-22T05:10:15;16.50;99.90
30037;DHT22;36325;51.512;-0.382;2023-06-22T05:12:43;16.50;99.90
30037;DHT22;36325;51.512;-0.382;2023-06-22T05:15:10;16.60;99.90
30037;DHT22;36325;51.512;-0.382;2023-06-22T05:17:37;16.60;99.90
30037;DHT22;36325;51.512;-0.382;2023-06-22T05:20:11;16.60;99.90
30037;DHT22;36325;51.512;-0.382;2023-06-22T05:22:39;16.70;99.90
30037;DHT22;36325;51.512;-0.382;2023-06-22T05:25:09;16.80;99.90
30037;DHT22;36325;51.512;-0.382;2023-06-22T05:27:37;16.80;99.90
30037;DHT22;36325;51.512;-0.382;2023-06-22T05:30:08;16.80;99.90
30037;DHT22;36325;51.512;-0.382;2023-06-22T05:32:37;16.90;99.90
30037;DHT22;36325;51.512;-0.382;2023-06-22T05:35:06;16.90;99.90
30037;DHT22;36325;51.512;-0.382;2023-06-22T05:37:33;16.90;99.90
30037;DHT22;36325;51.512;-0.382;2023-06-22T05:40:01;16.90;99.90
30037;DHT22;36325;51.512;-0.382;2023-06-22T05:42:28;17.00;99.90
30037;DHT22;36325;51.512;-0.382;2023-06-22T05:44:55;17.00;99.90
30037;DHT22;36325;51.512;-0.382;2023-06-22T05:47:23;17.00;99.90
30037;DHT22;36325;51.512;-0.382;2023-06-22T05:49:51;17.10;99.90
30037;DHT22;36325;51.512;-0.382;2023-06-22T05:52:18;17.10;99.90
30037;DHT22;36325;51.512;-0.382;2023-06-22T05:54:45;17.20;99.90
30037;DHT22;36325;51.512;-0.382;2023-06-22T05:57:13;17.20;99.90
30037;DHT22;36325;51.512;-0.382;2023-06-22T05:59:40;17.40;99.90
30037;DHT22;36325;51.512;-0.382;2023-06-22T06:02:08;17.40;99.90
30037;DHT22;36325;51.512;-0.382;2023-06-22T06:04:35;17.50;99.90
30037;DHT22;36325;51.512;-0.382;2023-06-22T06:07:04;17.50;99.90
30037;DHT22;36325;51.512;-0.382;2023-06-22T06:09:31;17.60;99.90
30037;DHT22;36325;51.512;-0.382;2023-06-22T06:11:58;17.70;99.90
30037;DHT22;36325;51.512;-0.382;2023-06-22T06:14:26;17.80;99.90
30037;DHT22;36325;51.512;-0.382;2023-06-22T06:16:54;17.90;99.90
30037;DHT22;36325;51.512;-0.382;2023-06-22T06:19:21;17.90;99.90
30037;DHT22;36325;51.512;-0.382;2023-06-22T06:21:49;18.00;99.90
30037;DHT22;36325;51.512;-0.382;2023-06-22T06:24:16;18.00;99.90
30037;DHT22;36325;51.512;-0.382;2023-06-22T06:26:43;18.10;99.90
30037;DHT22;36325;51.512;-0.382;2023-06-22T06:29:11;18.10;99.90
30037;DHT22;36325;51.512;-0.382;2023-06-22T06:31:38;18.20;99.90
30037;DHT22;36325;51.512;-0.382;2023-06-22T06:34:05;18.30;99.90
30037;DHT22;36325;51.512;-0.382;2023-06-22T06:36:33;18.40;99.90
30037;DHT22;36325;51.512;-0.382;2023-06-22T06:39:00;18.40;99.90
30037;DHT22;36325;51.512;-0.382;2023-06-22T06:41:27;17.50;99.90
30037;DHT22;36325;51.512;-0.382;2023-06-22T06:43:54;18.50;99.90
30037;DHT22;36325;51.512;-0.382;2023-06-22T06:46:21;18.60;99.90
30037;DHT22;36325;51.512;-0.382;2023-06-22T06:48:49;18.60;99.90
30037;DHT22;36325;51.512;-0.382;2023-06-22T06:51:16;18.70;99.90
30037;DHT22;36325;51.512;-0.382;2023-06-22T06:53:43;18.80;99.90
30037;DHT22;36325;51.512;-0.382;2023-06-22T06:56:11;18.90;99.90
30037;DHT22;36325;51.512;-0.382;2023-06-22T06:58:41;19.00;99.90
30037;DHT22;36325;51.512;-0.382;2023-06-22T07:01:17;19.00;99.90
30037;DHT22;36325;51.512;-0.382;2023-06-22T07:03:49;19.20;99.90
30037;DHT22;36325;51.512;-0.382;2023-06-22T07:06:17;19.20;99.90
30037;DHT22;36325;51.512;-0.382;2023-06-22T07:08:45;19.30;99.90
30037;DHT22;36325;51.512;-0.382;2023-06-22T07:11:12;19.40;99.90
30037;DHT22;36325;51.512;-0.382;2023-06-22T07:13:40;19.40;99.90
30037;DHT22;36325;51.512;-0.382;2023-06-22T07:16:07;19.50;99.90
30037;DHT22;36325;51.512;-0.382;2023-06-22T07:18:34;19.70;99.90
30037;DHT22;36325;51.512;-0.382;2023-06-22T07:21:03;19.80;99.90
30037;DHT22;36325;51.512;-0.382;2023-06-22T07:23:33;19.90;99.90
30037;DHT22;36325;51.512;-0.382;2023-06-22T07:26:03;20.00;99.90
30037;DHT22;36325;51.512;-0.382;2023-06-22T07:28:34;20.00;99.90
30037;DHT22;36325;51.512;-0.382;2023-06-22T07:31:06;20.00;99.90
30037;DHT22;36325;51.512;-0.382;2023-06-22T07:33:35;20.10;99.90
30037;DHT22;36325;51.512;-0.382;2023-06-22T07:36:02;20.20;99.90
30037;DHT22;36325;51.512;-0.382;2023-06-22T07:38:34;20.30;99.90
30037;DHT22;36325;51.512;-0.382;2023-06-22T07:41:02;20.40;99.90
30037;DHT22;36325;51.512;-0.382;2023-06-22T07:43:32;20.50;99.90
30037;DHT22;36325;51.512;-0.382;2023-06-22T07:46:01;20.70;99.90
30037;DHT22;36325;51.512;-0.382;2023-06-22T07:48:29;20.80;99.90
30037;DHT22;36325;51.512;-0.382;2023-06-22T07:50:56;20.90;99.90
30037;DHT22;36325;51.512;-0.382;2023-06-22T07:53:23;21.00;99.90
30037;DHT22;36325;51.512;-0.382;2023-06-22T07:55:51;21.10;99.90
30037;DHT22;36325;51.512;-0.382;2023-06-22T07:58:18;21.00;99.90
30037;DHT22;36325;51.512;-0.382;2023-06-22T08:00:47;21.40;99.90
30037;DHT22;36325;51.512;-0.382;2023-06-22T08:03:16;21.60;99.90
30037;DHT22;36325;51.512;-0.382;2023-06-22T08:05:44;21.90;99.90
30037;DHT22;36325;51.512;-0.382;2023-06-22T08:08:11;21.90;99.90
30037;DHT22;36325;51.512;-0.382;2023-06-22T08:10:38;22.10;99.90
30037;DHT22;36325;51.512;-0.382;2023-06-22T08:13:06;22.40;99.90
30037;DHT22;36325;51.512;-0.382;2023-06-22T08:15:33;22.50;99.90
30037;DHT22;36325;51.512;-0.382;2023-06-22T08:18:00;22.80;99.90
30037;DHT22;36325;51.512;-0.382;2023-06-22T08:20:28;23.00;99.90
30037;DHT22;36325;51.512;-0.382;2023-06-22T08:22:55;23.20;99.90
30037;DHT22;36325;51.512;-0.382;2023-06-22T08:25:24;23.50;99.90
30037;DHT22;36325;51.512;-0.382;2023-06-22T08:27:53;23.80;99.90
30037;DHT22;36325;51.512;-0.382;2023-06-22T08:30:20;23.00;99.90
30037;DHT22;36325;51.512;-0.382;2023-06-22T08:32:47;24.30;99.90
30037;DHT22;36325;51.512;-0.382;2023-06-22T08:35:15;24.50;99.90
30037;DHT22;36325;51.512;-0.382;2023-06-22T08:37:42;24.90;99.90
30037;DHT22;36325;51.512;-0.382;2023-06-22T08:40:10;25.30;99.90
30037;DHT22;36325;51.512;-0.382;2023-06-22T08:42:40;25.60;99.90
30037;DHT22;36325;51.512;-0.382;2023-06-22T08:45:09;25.90;99.90
30037;DHT22;36325;51.512;-0.382;2023-06-22T08:47:36;26.00;99.90
30037;DHT22;36325;51.512;-0.382;2023-06-22T08:50:04;26.20;99.90
30037;DHT22;36325;51.512;-0.382;2023-06-22T08:52:31;26.40;99.90
30037;DHT22;36325;51.512;-0.382;2023-06-22T08:54:58;26.90;99.90
30037;DHT22;36325;51.512;-0.382;2023-06-22T08:57:26;26.90;99.90
30037;DHT22;36325;51.512;-0.382;2023-06-22T08:59:53;26.90;99.90
30037;DHT22;36325;51.512;-0.382;2023-06-22T09:02:26;27.00;99.90
30037;DHT22;36325;51.512;-0.382;2023-06-22T09:04:53;27.10;99.90
30037;DHT22;36325;51.512;-0.382;2023-06-22T09:07:22;27.30;99.90
30037;DHT22;36325;51.512;-0.382;2023-06-22T09:09:51;27.30;99.90
30037;DHT22;36325;51.512;-0.382;2023-06-22T09:12:19;27.40;99.90
30037;DHT22;36325;51.512;-0.382;2023-06-22T09:17:14;27.60;99.90
30037;DHT22;36325;51.512;-0.382;2023-06-22T09:19:41;27.60;99.90
30037;DHT22;36325;51.512;-0.382;2023-06-22T09:22:08;27.50;99.90
30037;DHT22;36325;51.512;-0.382;2023-06-22T09:24:36;27.30;99.90
30037;DHT22;36325;51.512;-0.382;2023-06-22T09:27:04;27.30;99.90
30037;DHT22;36325;51.512;-0.382;2023-06-22T09:29:31;27.30;99.90
30037;DHT22;36325;51.512;-0.382;2023-06-22T09:32:00;27.80;99.90
30037;DHT22;36325;51.512;-0.382;2023-06-22T09:34:28;27.90;99.90
30037;DHT22;36325;51.512;-0.382;2023-06-22T09:36:58;27.90;99.90
30037;DHT22;36325;51.512;-0.382;2023-06-22T09:39:27;27.90;99.90
30037;DHT22;36325;51.512;-0.382;2023-06-22T09:41:54;27.80;99.90
30037;DHT22;36325;51.512;-0.382;2023-06-22T09:44:22;27.70;99.90
30037;DHT22;36325;51.512;-0.382;2023-06-22T09:46:49;27.80;99.90
30037;DHT22;36325;51.512;-0.382;2023-06-22T09:49:16;27.80;99.90
30037;DHT22;36325;51.512;-0.382;2023-06-22T09:51:43;27.80;99.90
30037;DHT22;36325;51.512;-0.382;2023-06-22T09:54:10;27.70;99.90
30037;DHT22;36325;51.512;-0.382;2023-06-22T09:56:37;27.70;99.90
30037;DHT22;36325;51.512;-0.382;2023-06-22T09:59:05;28.20;99.90
30037;DHT22;36325;51.512;-0.382;2023-06-22T10:01:44;28.60;99.90
30037;DHT22;36325;51.512;-0.382;2023-06-22T10:04:11;28.70;99.90
30037;DHT22;36325;51.512;-0.382;2023-06-22T10:06:38;28.40;99.90
30037;DHT22;36325;51.512;-0.382;2023-06-22T10:09:07;28.60;99.90
30037;DHT22;36325;51.512;-0.382;2023-06-22T10:11:35;28.80;99.90
30037;DHT22;36325;51.512;-0.382;2023-06-22T10:14:04;28.70;99.90
30037;DHT22;36325;51.512;-0.382;2023-06-22T10:16:31;29.00;99.90
30037;DHT22;36325;51.512;-0.382;2023-06-22T10:18:59;29.20;99.90
30037;DHT22;36325;51.512;-0.382;2023-06-22T10:21:26;29.00;99.90
30037;DHT22;36325;51.512;-0.382;2023-06-22T10:23:55;28.80;99.90
30037;DHT22;36325;51.512;-0.382;2023-06-22T10:26:23;29.30;99.90
30037;DHT22;36325;51.512;-0.382;2023-06-22T10:28:50;29.60;99.90
30037;DHT22;36325;51.512;-0.382;2023-06-22T10:31:33;29.90;99.90
30037;DHT22;36325;51.512;-0.382;2023-06-22T10:34:00;30.40;99.90
30037;DHT22;36325;51.512;-0.382;2023-06-22T10:36:28;30.80;99.90
30037;DHT22;36325;51.512;-0.382;2023-06-22T10:38:55;31.30;99.90
30037;DHT22;36325;51.512;-0.382;2023-06-22T10:41:23;31.80;99.90
30037;DHT22;36325;51.512;-0.382;2023-06-22T10:43:50;32.20;99.90
30037;DHT22;36325;51.512;-0.382;2023-06-22T10:46:17;32.60;99.90
30037;DHT22;36325;51.512;-0.382;2023-06-22T10:48:44;33.00;99.90
30037;DHT22;36325;51.512;-0.382;2023-06-22T10:51:11;33.30;99.90
30037;DHT22;36325;51.512;-0.382;2023-06-22T10:53:39;33.60;99.90
30037;DHT22;36325;51.512;-0.382;2023-06-22T10:58:34;34.10;99.90
30037;DHT22;36325;51.512;-0.382;2023-06-22T11:01:01;34.00;99.90
30037;DHT22;36325;51.512;-0.382;2023-06-22T11:03:29;34.00;99.90
30037;DHT22;36325;51.512;-0.382;2023-06-22T11:05:57;34.00;99.90
30037;DHT22;36325;51.512;-0.382;2023-06-22T11:08:24;34.70;99.90
30037;DHT22;36325;51.512;-0.382;2023-06-22T11:10:51;35.00;99.90
30037;DHT22;36325;51.512;-0.382;2023-06-22T11:13:19;35.50;99.90
30037;DHT22;36325;51.512;-0.382;2023-06-22T11:15:46;35.80;99.90
30037;DHT22;36325;51.512;-0.382;2023-06-22T11:18:14;36.20;99.90
30037;DHT22;36325;51.512;-0.382;2023-06-22T11:20:42;36.40;99.50
30037;DHT22;36325;51.512;-0.382;2023-06-22T11:23:09;36.40;98.80
30037;DHT22;36325;51.512;-0.382;2023-06-22T11:25:37;35.70;98.60
30037;DHT22;36325;51.512;-0.382;2023-06-22T11:28:06;35.70;99.00
30037;DHT22;36325;51.512;-0.382;2023-06-22T11:30:34;35.90;99.00
30037;DHT22;36325;51.512;-0.382;2023-06-22T11:33:01;35.40;99.20
30037;DHT22;36325;51.512;-0.382;2023-06-22T11:35:28;34.80;99.50
30037;DHT22;36325;51.512;-0.382;2023-06-22T11:37:55;34.30;99.80
30037;DHT22;36325;51.512;-0.382;2023-06-22T11:40:23;33.60;99.90
30037;DHT22;36325;51.512;-0.382;2023-06-22T11:42:50;33.30;99.90
30037;DHT22;36325;51.512;-0.382;2023-06-22T11:45:17;34.00;99.50
30037;DHT22;36325;51.512;-0.382;2023-06-22T11:47:46;35.00;98.70
30037;DHT22;36325;51.512;-0.382;2023-06-22T11:50:13;36.00;98.10
30037;DHT22;36325;51.512;-0.382;2023-06-22T11:52:40;37.00;97.10
30037;DHT22;36325;51.512;-0.382;2023-06-22T11:55:08;37.90;96.00
30037;DHT22;36325;51.512;-0.382;2023-06-22T11:57:39;38.70;94.70
30037;DHT22;36325;51.512;-0.382;2023-06-22T12:00:18;38.50;92.60
30037;DHT22;36325;51.512;-0.382;2023-06-22T12:02:46;37.20;92.60
30037;DHT22;36325;51.512;-0.382;2023-06-22T12:05:13;37.20;92.80
30037;DHT22;36325;51.512;-0.382;2023-06-22T12:07:41;36.50;92.70
30037;DHT22;36325;51.512;-0.382;2023-06-22T12:10:09;36.00;93.10
30037;DHT22;36325;51.512;-0.382;2023-06-22T12:12:38;35.00;93.30
30037;DHT22;36325;51.512;-0.382;2023-06-22T12:15:05;34.90;93.50
30037;DHT22;36325;51.512;-0.382;2023-06-22T12:17:34;35.90;92.40
30037;DHT22;36325;51.512;-0.382;2023-06-22T12:20:02;36.00;92.80
30037;DHT22;36325;51.512;-0.382;2023-06-22T12:22:33;37.00;91.80
30037;DHT22;36325;51.512;-0.382;2023-06-22T12:25:00;37.40;90.20
30037;DHT22;36325;51.512;-0.382;2023-06-22T12:27:29;38.20;90.40
30037;DHT22;36325;51.512;-0.382;2023-06-22T12:29:59;39.30;90.30
30037;DHT22;36325;51.512;-0.382;2023-06-22T12:32:27;40.30;89.10
30037;DHT22;36325;51.512;-0.382;2023-06-22T12:34:54;41.00;86.80
30037;DHT22;36325;51.512;-0.382;2023-06-22T12:37:23;41.60;84.60
30037;DHT22;36325;51.512;-0.382;2023-06-22T12:39:50;42.00;82.90
30037;DHT22;36325;51.512;-0.382;2023-06-22T12:42:17;42.40;80.80
30037;DHT22;36325;51.512;-0.382;2023-06-22T12:44:46;41.70;78.00
30037;DHT22;36325;51.512;-0.382;2023-06-22T12:49:41;40.10;77.00
30037;DHT22;36325;51.512;-0.382;2023-06-22T12:52:11;40.10;78.00
30037;DHT22;36325;51.512;-0.382;2023-06-22T12:54:38;40.40;77.30
30037;DHT22;36325;51.512;-0.382;2023-06-22T12:57:20;40.10;77.00
30037;DHT22;36325;51.512;-0.382;2023-06-22T12:59:47;40.50;77.20
30037;DHT22;36325;51.512;-0.382;2023-06-22T13:02:14;40.50;76.70
30037;DHT22;36325;51.512;-0.382;2023-06-22T13:04:41;40.10;76.20
30037;DHT22;36325;51.512;-0.382;2023-06-22T13:07:10;40.40;75.30
30037;DHT22;36325;51.512;-0.382;2023-06-22T13:09:48;40.80;74.20
30037;DHT22;36325;51.512;-0.382;2023-06-22T13:12:20;41.00;72.50
30037;DHT22;36325;51.512;-0.382;2023-06-22T13:14:48;41.40;71.60
30037;DHT22;36325;51.512;-0.382;2023-06-22T13:17:15;41.90;70.60
30037;DHT22;36325;51.512;-0.382;2023-06-22T13:19:43;42.40;69.00
30037;DHT22;36325;51.512;-0.382;2023-06-22T13:22:32;42.10;67.10
30037;DHT22;36325;51.512;-0.382;2023-06-22T13:25:01;43.20;66.10
30037;DHT22;36325;51.512;-0.382;2023-06-22T13:27:29;43.70;65.70
30037;DHT22;36325;51.512;-0.382;2023-06-22T13:29:56;44.20;64.70
30037;DHT22;36325;51.512;-0.382;2023-06-22T13:32:23;44.40;63.00
30037;DHT22;36325;51.512;-0.382;2023-06-22T13:34:51;44.10;61.80
30037;DHT22;36325;51.512;-0.382;2023-06-22T13:37:20;44.30;61.40
30037;DHT22;36325;51.512;-0.382;2023-06-22T13:39:47;44.50;60.90
30037;DHT22;36325;51.512;-0.382;2023-06-22T13:42:15;44.60;60.30
30037;DHT22;36325;51.512;-0.382;2023-06-22T13:44:42;44.70;59.80
30037;DHT22;36325;51.512;-0.382;2023-06-22T13:47:11;44.90;59.30
30037;DHT22;36325;51.512;-0.382;2023-06-22T13:49:38;45.20;59.00
30037;DHT22;36325;51.512;-0.382;2023-06-22T13:52:08;45.30;58.60
30037;DHT22;36325;51.512;-0.382;2023-06-22T13:54:37;45.60;57.80
30037;DHT22;36325;51.512;-0.382;2023-06-22T13:57:04;44.70;57.00
30037;DHT22;36325;51.512;-0.382;2023-06-22T13:59:31;43.30;57.10
30037;DHT22;36325;51.512;-0.382;2023-06-22T14:01:59;42.50;57.50
30037;DHT22;36325;51.512;-0.382;2023-06-22T14:04:26;42.00;58.00
30037;DHT22;36325;51.512;-0.382;2023-06-22T14:06:53;41.50;58.30
30037;DHT22;36325;51.512;-0.382;2023-06-22T14:09:23;39.30;59.50
30037;DHT22;36325;51.512;-0.382;2023-06-22T14:11:50;39.10;60.10
30037;DHT22;36325;51.512;-0.382;2023-06-22T14:14:17;38.10;61.60
30037;DHT22;36325;51.512;-0.382;2023-06-22T14:16:44;37.00;62.90
30037;DHT22;36325;51.512;-0.382;2023-06-22T14:19:12;35.80;64.20
30037;DHT22;36325;51.512;-0.382;2023-06-22T14:21:39;36.30;64.50
30037;DHT22;36325;51.512;-0.382;2023-06-22T14:24:07;36.30;65.10
30037;DHT22;36325;51.512;-0.382;2023-06-22T14:26:35;37.80;64.00
30037;DHT22;36325;51.512;-0.382;2023-06-22T14:29:02;39.20;61.60
30037;DHT22;36325;51.512;-0.382;2023-06-22T14:31:31;40.40;60.00
30037;DHT22;36325;51.512;-0.382;2023-06-22T14:34:00;41.40;59.10
30037;DHT22;36325;51.512;-0.382;2023-06-22T14:36:30;42.40;59.10
30037;DHT22;36325;51.512;-0.382;2023-06-22T14:38:58;43.20;58.10
30037;DHT22;36325;51.512;-0.382;2023-06-22T14:41:25;43.60;57.80
30037;DHT22;36325;51.512;-0.382;2023-06-22T14:43:52;42.70;58.00
30037;DHT22;36325;51.512;-0.382;2023-06-22T14:46:20;41.20;58.70
30037;DHT22;36325;51.512;-0.382;2023-06-22T14:48:47;39.80;59.30
30037;DHT22;36325;51.512;-0.382;2023-06-22T14:51:15;39.10;60.70
30037;DHT22;36325;51.512;-0.382;2023-06-22T14:53:46;37.30;61.40
30037;DHT22;36325;51.512;-0.382;2023-06-22T14:56:14;37.10;62.30
30037;DHT22;36325;51.512;-0.382;2023-06-22T14:58:43;36.80;62.00
30037;DHT22;36325;51.512;-0.382;2023-06-22T15:01:13;36.80;63.00
30037;DHT22;36325;51.512;-0.382;2023-06-22T15:03:40;36.40;62.80
30037;DHT22;36325;51.512;-0.382;2023-06-22T15:06:08;35.80;63.40
30037;DHT22;36325;51.512;-0.382;2023-06-22T15:08:39;35.70;64.00
30037;DHT22;36325;51.512;-0.382;2023-06-22T15:11:07;35.20;64.80
30037;DHT22;36325;51.512;-0.382;2023-06-22T15:13:35;34.80;65.40
30037;DHT22;36325;51.512;-0.382;2023-06-22T15:16:05;34.40;66.20
30037;DHT22;36325;51.512;-0.382;2023-06-22T15:18:33;34.40;67.30
30037;DHT22;36325;51.512;-0.382;2023-06-22T15:21:05;34.90;67.50
30037;DHT22;36325;51.512;-0.382;2023-06-22T15:23:32;34.70;67.50
30037;DHT22;36325;51.512;-0.382;2023-06-22T15:26:03;34.30;68.20
30037;DHT22;36325;51.512;-0.382;2023-06-22T15:28:32;33.90;69.30
30037;DHT22;36325;51.512;-0.382;2023-06-22T15:31:00;33.60;70.30
30037;DHT22;36325;51.512;-0.382;2023-06-22T15:33:28;33.30;70.90
30037;DHT22;36325;51.512;-0.382;2023-06-22T15:35:56;33.00;71.60
30037;DHT22;36325;51.512;-0.382;2023-06-22T15:38:23;32.60;72.20
30037;DHT22;36325;51.512;-0.382;2023-06-22T15:40:50;32.50;72.70